Terminal Aerodrome Forecast
Issued by NWS Wilmington, OH

Home | Current Version | Previous Version | Text Only | Print | Product List | Glossary On
Versions: 1 2 3 4 5 6 7 8 9 10 11 12 13 14 15 16 17 18
000
FTUS41 KILN 202339
TAFCMH
TAF
KCMH 202339Z 2100/2124 VRB03KT P6SM FEW100 SCT250
     FM210600 00000KT 5SM BR SCT250
     FM211000 00000KT 2SM BR SKC
      TEMPO 2110/2113 1SM BR SCT002
     FM211400 VRB03KT P6SM FEW030=

USA.gov is the U.S. government's official web portal to all federal, state and local government web resources and services.